createdAt,value
2018-03-30T00:00:01.580Z,1.46
2018-03-30T00:01:01.833Z,1.47
2018-03-30T00:02:01.547Z,1.44
2018-03-30T00:03:01.444Z,1.44
2018-03-30T00:04:01.383Z,1.60
2018-03-30T00:05:01.340Z,1.47
2018-03-30T00:06:01.285Z,1.54
2018-03-30T00:07:01.243Z,1.50
2018-03-30T00:08:01.492Z,1.54
2018-03-30T00:09:01.140Z,1.50
2018-03-30T00:10:01.085Z,1.49
2018-03-30T00:11:01.037Z,1.47
2018-03-30T00:12:00.991Z,1.68
2018-03-30T00:13:00.950Z,1.68
2018-03-30T00:14:01.200Z,1.63
2018-03-30T00:15:00.855Z,1.70
2018-03-30T00:16:00.802Z,1.74
2018-03-30T00:17:00.752Z,1.72
2018-03-30T00:18:00.710Z,1.77
2018-03-30T00:19:00.652Z,1.70
2018-03-30T00:20:00.906Z,1.70
2018-03-30T00:21:00.550Z,1.86
2018-03-30T00:22:00.494Z,1.79
2018-03-30T00:23:00.445Z,1.98
2018-03-30T00:24:00.398Z,1.98
2018-03-30T00:25:00.346Z,2.00
2018-03-30T00:26:00.597Z,1.98
2018-03-30T00:27:00.249Z,2.02
2018-03-30T00:28:00.198Z,2.02
2018-03-30T00:29:00.160Z,2.18
2018-03-30T00:30:00.115Z,2.04
2018-03-30T00:31:00.066Z,2.20
2018-03-30T00:32:00.314Z,2.32
2018-03-30T00:32:59.964Z,2.26
2018-03-30T00:33:59.915Z,2.30
2018-03-30T00:34:59.870Z,2.27
2018-03-30T00:35:59.815Z,2.26
2018-03-30T00:36:59.770Z,2.30
2018-03-30T00:38:00.017Z,2.37
2018-03-30T00:38:59.669Z,2.32
2018-03-30T00:39:59.619Z,2.41
2018-03-30T00:40:59.570Z,2.37
2018-03-30T00:41:59.524Z,2.38
2018-03-30T00:42:59.473Z,2.38
2018-03-30T00:43:59.422Z,2.37
2018-03-30T00:44:59.666Z,2.37
2018-03-30T00:45:59.314Z,2.37
2018-03-30T00:46:59.270Z,2.43
2018-03-30T00:47:59.217Z,2.47
2018-03-30T00:48:59.176Z,2.44
2018-03-30T00:49:59.118Z,2.50
2018-03-30T00:50:59.072Z,2.50
2018-03-30T00:51:59.323Z,2.56
2018-03-30T00:52:59.068Z,2.63
2018-03-30T00:53:58.928Z,2.68
2018-03-30T00:54:58.876Z,2.63
2018-03-30T00:55:58.824Z,2.65
2018-03-30T00:56:58.780Z,2.76
2018-03-30T00:57:58.729Z,2.79
2018-03-30T00:58:58.977Z,2.76
2018-03-30T00:59:58.629Z,2.77
2018-03-30T01:00:58.591Z,2.87
2018-03-30T01:01:58.541Z,2.89
2018-03-30T01:02:58.543Z,2.87
2018-03-30T01:03:58.442Z,2.97
2018-03-30T01:04:58.397Z,2.95
2018-03-30T01:05:58.644Z,2.98
2018-03-30T01:06:58.290Z,3.04
2018-03-30T01:07:58.245Z,3.01
2018-03-30T01:08:58.193Z,3.04
2018-03-30T01:09:58.148Z,3.10
2018-03-30T01:10:58.094Z,3.02
2018-03-30T01:11:58.051Z,3.04
2018-03-30T01:12:58.299Z,2.97
2018-03-30T01:13:57.953Z,3.05
2018-03-30T01:14:57.906Z,3.04
2018-03-30T01:15:57.856Z,2.94
2018-03-30T01:16:57.794Z,2.98
2018-03-30T01:17:57.743Z,2.94
2018-03-30T01:18:57.694Z,3.07
2018-03-30T01:19:57.948Z,3.07
2018-03-30T01:20:57.601Z,3.05
2018-03-30T01:21:57.547Z,3.07
2018-03-30T01:22:57.500Z,3.07
2018-03-30T01:23:57.451Z,3.17
2018-03-30T01:24:57.414Z,3.12
2018-03-30T01:25:57.664Z,3.15
2018-03-30T01:26:57.313Z,3.33
2018-03-30T01:27:57.266Z,3.26
2018-03-30T01:28:57.222Z,3.30
2018-03-30T01:29:57.168Z,3.42
2018-03-30T01:30:57.119Z,3.41
2018-03-30T01:31:57.378Z,3.46
2018-03-30T01:32:57.013Z,3.53
2018-03-30T01:33:56.962Z,3.49
2018-03-30T01:34:56.934Z,3.54
2018-03-30T01:35:56.912Z,3.56
2018-03-30T01:36:56.824Z,3.63
2018-03-30T01:37:57.067Z,3.59
2018-03-30T01:38:56.719Z,3.49
2018-03-30T01:39:56.670Z,3.62
2018-03-30T01:40:56.622Z,3.56
2018-03-30T01:41:56.572Z,3.54
2018-03-30T01:42:56.522Z,3.62
2018-03-30T01:43:56.781Z,3.56
2018-03-30T01:44:56.426Z,3.54
2018-03-30T01:45:56.379Z,3.45
2018-03-30T01:46:56.333Z,3.53
2018-03-30T01:47:56.288Z,3.45
2018-03-30T01:48:56.241Z,3.44
2018-03-30T01:49:56.493Z,3.49
2018-03-30T01:50:56.144Z,3.42
2018-03-30T01:51:56.095Z,3.46
2018-03-30T01:52:56.048Z,3.45
2018-03-30T01:53:55.997Z,3.42
2018-03-30T01:54:55.948Z,3.28
2018-03-30T01:55:55.900Z,3.33
2018-03-30T01:56:56.142Z,3.35
2018-03-30T01:57:55.792Z,3.20
2018-03-30T01:58:55.743Z,3.25
2018-03-30T01:59:55.698Z,3.35
2018-03-30T02:00:55.647Z,3.26
2018-03-30T02:01:55.597Z,3.31
2018-03-30T02:02:55.551Z,3.30
2018-03-30T02:03:55.806Z,3.22
2018-03-30T02:04:55.460Z,3.20
2018-03-30T02:05:55.416Z,3.22
2018-03-30T02:06:55.364Z,3.25
2018-03-30T02:07:55.317Z,3.26
2018-03-30T02:08:55.275Z,3.17
2018-03-30T02:09:55.219Z,3.20
2018-03-30T02:10:55.468Z,3.13
2018-03-30T02:11:55.120Z,3.13
2018-03-30T02:12:55.074Z,3.26
2018-03-30T02:13:55.021Z,3.30
2018-03-30T02:14:54.972Z,3.26
2018-03-30T02:15:54.936Z,3.28
2018-03-30T02:16:54.873Z,3.20
2018-03-30T02:17:55.129Z,3.33
2018-03-30T02:18:54.776Z,3.25
2018-03-30T02:19:54.728Z,3.26
2018-03-30T02:20:54.678Z,3.23
2018-03-30T02:21:54.621Z,3.25
2018-03-30T02:22:54.571Z,3.25
2018-03-30T02:23:54.522Z,3.31
2018-03-30T02:24:54.774Z,3.28
2018-03-30T02:25:54.427Z,3.28
2018-03-30T02:26:54.376Z,3.23
2018-03-30T02:27:54.328Z,3.17
2018-03-30T02:28:54.289Z,3.28
2018-03-30T02:29:54.239Z,3.23
2018-03-30T02:30:54.490Z,3.23
2018-03-30T02:31:54.145Z,3.26
2018-03-30T02:32:54.094Z,3.31
2018-03-30T02:33:54.046Z,3.25
2018-03-30T02:34:53.995Z,3.31
2018-03-30T02:35:53.948Z,3.30
2018-03-30T02:36:54.187Z,3.33
2018-03-30T02:37:53.839Z,3.23
2018-03-30T02:38:53.798Z,3.35
2018-03-30T02:39:53.743Z,3.25
2018-03-30T02:40:53.692Z,3.31
2018-03-30T02:41:53.652Z,3.33
2018-03-30T02:42:53.896Z,3.28
2018-03-30T02:43:53.549Z,3.30
2018-03-30T02:44:53.497Z,3.34
2018-03-30T02:45:53.450Z,3.28
2018-03-30T02:46:53.399Z,3.23
2018-03-30T02:47:53.354Z,3.23
2018-03-30T02:48:53.602Z,3.28
2018-03-30T02:49:53.263Z,3.20
2018-03-30T02:50:53.203Z,3.17
2018-03-30T02:51:53.202Z,3.20
2018-03-30T02:52:53.122Z,3.13
2018-03-30T02:53:53.067Z,3.10
2018-03-30T02:54:53.319Z,3.13
2018-03-30T02:55:52.973Z,3.13
2018-03-30T02:56:52.933Z,3.12
2018-03-30T02:57:52.877Z,3.12
2018-03-30T02:58:52.834Z,3.12
2018-03-30T02:59:52.777Z,3.12
2018-03-30T03:00:53.017Z,3.07
2018-03-30T03:01:52.669Z,3.10
2018-03-30T03:02:52.620Z,3.13
2018-03-30T03:03:52.573Z,3.22
2018-03-30T03:04:52.521Z,3.15
2018-03-30T03:05:52.487Z,3.20
2018-03-30T03:06:52.424Z,3.12
2018-03-30T03:07:52.674Z,3.15
2018-03-30T03:08:52.338Z,3.13
2018-03-30T03:09:52.286Z,3.22
2018-03-30T03:10:52.238Z,3.13
2018-03-30T03:11:52.193Z,3.23
2018-03-30T03:12:52.150Z,3.15
2018-03-30T03:13:52.093Z,3.16
2018-03-30T03:14:52.343Z,3.12
2018-03-30T03:15:51.999Z,3.08
2018-03-30T03:16:51.953Z,3.12
2018-03-30T03:17:51.901Z,3.16
2018-03-30T03:18:51.849Z,3.13
2018-03-30T03:19:51.799Z,3.15
2018-03-30T03:20:51.753Z,3.19
2018-03-30T03:21:52.000Z,3.22
2018-03-30T03:22:51.654Z,3.30
2018-03-30T03:23:51.607Z,3.30
2018-03-30T03:24:51.548Z,3.28
2018-03-30T03:25:51.503Z,3.31
2018-03-30T03:26:51.460Z,3.33
2018-03-30T03:27:51.407Z,3.31
2018-03-30T03:28:51.662Z,3.33
2018-03-30T03:29:51.304Z,3.26
2018-03-30T03:30:51.257Z,3.34
2018-03-30T03:31:51.206Z,3.30
2018-03-30T03:32:51.174Z,3.28
2018-03-30T03:33:51.118Z,3.31
2018-03-30T03:34:51.069Z,3.34
2018-03-30T03:35:51.321Z,3.33
2018-03-30T03:36:50.975Z,3.34
2018-03-30T03:37:50.923Z,3.31
2018-03-30T03:38:50.875Z,3.35
2018-03-30T03:39:50.828Z,3.44
2018-03-30T03:40:50.768Z,3.31
2018-03-30T03:41:51.020Z,3.28
2018-03-30T03:42:50.679Z,3.28
2018-03-30T03:43:50.623Z,3.30
2018-03-30T03:44:50.577Z,3.31
2018-03-30T03:45:50.525Z,3.33
2018-03-30T03:46:50.478Z,3.41
2018-03-30T03:47:50.730Z,3.33
2018-03-30T03:48:50.533Z,3.34
2018-03-30T03:49:50.331Z,3.26
2018-03-30T03:50:50.289Z,3.31
2018-03-30T03:51:50.234Z,3.37
2018-03-30T03:52:50.187Z,3.33
2018-03-30T03:53:50.437Z,3.44
2018-03-30T03:54:50.089Z,3.34
2018-03-30T03:55:50.040Z,3.33
2018-03-30T03:56:50.002Z,3.34
2018-03-30T03:57:49.954Z,3.39
2018-03-30T03:58:49.904Z,3.34
2018-03-30T03:59:50.775Z,3.35
2018-03-30T04:00:49.806Z,3.45
2018-03-30T04:01:49.766Z,3.37
2018-03-30T04:02:49.714Z,3.50
2018-03-30T04:03:49.662Z,3.54
2018-03-30T04:04:49.606Z,3.49
2018-03-30T04:05:49.855Z,3.54
2018-03-30T04:06:49.514Z,3.52
2018-03-30T04:07:49.469Z,3.52
2018-03-30T04:08:49.428Z,3.49
2018-03-30T04:09:49.412Z,3.45
2018-03-30T04:10:49.311Z,3.56
2018-03-30T04:11:49.265Z,3.60
2018-03-30T04:12:49.527Z,3.46
2018-03-30T04:13:49.177Z,3.56
2018-03-30T04:14:49.129Z,3.67
2018-03-30T04:15:49.243Z,3.63
2018-03-30T04:16:49.035Z,3.60
2018-03-30T04:17:48.991Z,3.59
2018-03-30T04:18:48.940Z,3.53
2018-03-30T04:19:49.195Z,3.60
2018-03-30T04:20:48.840Z,3.57
2018-03-30T04:21:48.791Z,3.50
2018-03-30T04:22:48.743Z,3.60
2018-03-30T04:23:48.695Z,3.53
2018-03-30T04:24:48.652Z,3.53
2018-03-30T04:25:48.600Z,3.62
2018-03-30T04:26:48.852Z,3.59
2018-03-30T04:27:48.501Z,3.59
2018-03-30T04:28:48.446Z,3.64
2018-03-30T04:29:48.395Z,3.62
2018-03-30T04:30:48.350Z,3.60
2018-03-30T04:31:48.318Z,3.57
2018-03-30T04:32:48.256Z,3.63
2018-03-30T04:33:48.500Z,3.60
2018-03-30T04:34:48.153Z,3.63
2018-03-30T04:35:48.108Z,3.62
2018-03-30T04:36:48.066Z,3.59
2018-03-30T04:37:48.018Z,3.57
2018-03-30T04:38:47.968Z,3.64
2018-03-30T04:39:47.921Z,3.56
2018-03-30T04:40:48.173Z,3.53
2018-03-30T04:41:47.823Z,3.57
2018-03-30T04:42:47.777Z,3.68
2018-03-30T04:43:47.727Z,3.53
2018-03-30T04:44:47.668Z,3.63
2018-03-30T04:45:47.620Z,3.64
2018-03-30T04:46:47.574Z,3.63
2018-03-30T04:47:47.825Z,3.67
2018-03-30T04:48:47.475Z,3.68
2018-03-30T04:49:47.426Z,3.60
2018-03-30T04:50:47.378Z,3.63
2018-03-30T04:51:47.332Z,3.62
2018-03-30T04:52:47.282Z,3.68
2018-03-30T04:53:47.533Z,3.68
2018-03-30T04:54:47.184Z,3.68
2018-03-30T04:55:47.138Z,3.67
2018-03-30T04:56:47.090Z,3.72
2018-03-30T04:57:47.041Z,3.59
2018-03-30T04:58:46.992Z,3.64
2018-03-30T04:59:47.247Z,3.67
2018-03-30T05:00:46.907Z,3.68
2018-03-30T05:01:46.858Z,3.67
2018-03-30T05:02:46.813Z,3.68
2018-03-30T05:03:46.769Z,3.68
2018-03-30T05:04:46.713Z,3.68
2018-03-30T05:05:46.967Z,3.63
2018-03-30T05:06:46.614Z,3.68
2018-03-30T05:07:46.615Z,3.67
2018-03-30T05:08:46.510Z,3.68
2018-03-30T05:09:46.462Z,3.63
2018-03-30T05:10:46.419Z,3.59
2018-03-30T05:11:46.666Z,3.63
2018-03-30T05:12:46.316Z,3.60
2018-03-30T05:13:46.279Z,3.70
2018-03-30T05:14:46.219Z,3.67
2018-03-30T05:15:46.173Z,3.71
2018-03-30T05:16:46.134Z,3.71
2018-03-30T05:17:46.384Z,3.70
2018-03-30T05:18:46.035Z,3.64
2018-03-30T05:19:45.987Z,3.70
2018-03-30T05:20:45.941Z,3.72
2018-03-30T05:21:45.901Z,3.70
2018-03-30T05:22:45.843Z,3.72
2018-03-30T05:23:45.793Z,3.84
2018-03-30T05:24:46.044Z,3.71
2018-03-30T05:25:45.700Z,3.68
2018-03-30T05:26:45.648Z,3.82
2018-03-30T05:27:45.606Z,3.81
2018-03-30T05:28:45.556Z,3.80
2018-03-30T05:29:45.510Z,3.77
2018-03-30T05:30:45.457Z,3.75
2018-03-30T05:31:45.704Z,3.86
2018-03-30T05:32:45.347Z,3.80
2018-03-30T05:33:45.299Z,3.75
2018-03-30T05:34:45.255Z,3.72
2018-03-30T05:35:45.203Z,3.84
2018-03-30T05:36:45.153Z,3.82
2018-03-30T05:37:45.114Z,3.82
2018-03-30T05:38:45.356Z,3.89
2018-03-30T05:39:45.057Z,3.88
2018-03-30T05:40:44.973Z,3.81
2018-03-30T05:41:44.921Z,3.86
2018-03-30T05:42:44.873Z,3.95
2018-03-30T05:43:44.826Z,3.88
2018-03-30T05:44:44.778Z,3.96
2018-03-30T05:45:45.027Z,3.95
2018-03-30T05:46:44.743Z,3.93
2018-03-30T05:47:44.632Z,3.95
2018-03-30T05:48:44.582Z,3.88
2018-03-30T05:49:44.526Z,3.95
2018-03-30T05:50:44.476Z,4.04
2018-03-30T05:51:44.430Z,3.95
2018-03-30T05:52:44.732Z,3.98
2018-03-30T05:53:44.332Z,4.00
2018-03-30T05:54:44.284Z,4.02
2018-03-30T05:55:44.236Z,3.93
2018-03-30T05:56:44.194Z,3.99
2018-03-30T05:57:44.146Z,3.95
2018-03-30T05:58:44.401Z,3.90
2018-03-30T05:59:44.045Z,3.95
2018-03-30T06:00:43.996Z,3.98
2018-03-30T06:01:43.949Z,4.02
2018-03-30T06:02:43.904Z,4.04
2018-03-30T06:03:43.851Z,4.08
2018-03-30T06:04:44.116Z,4.04
2018-03-30T06:05:43.770Z,4.06
2018-03-30T06:06:43.722Z,4.07
2018-03-30T06:07:43.670Z,4.04
2018-03-30T06:08:43.629Z,4.18
2018-03-30T06:09:43.573Z,4.20
2018-03-30T06:10:43.833Z,4.21
2018-03-30T06:11:43.479Z,4.11
2018-03-30T06:12:43.417Z,4.21
2018-03-30T06:13:43.371Z,4.24
2018-03-30T06:14:43.329Z,4.20
2018-03-30T06:15:43.375Z,4.28
2018-03-30T06:16:43.529Z,4.29
2018-03-30T06:17:43.183Z,4.28
2018-03-30T06:18:43.143Z,4.32
2018-03-30T06:19:43.084Z,4.32
2018-03-30T06:20:43.048Z,4.35
2018-03-30T06:21:43.005Z,4.42
2018-03-30T06:22:43.264Z,4.42
2018-03-30T06:23:42.911Z,4.46
2018-03-30T06:24:42.862Z,4.44
2018-03-30T06:25:42.806Z,4.39
2018-03-30T06:26:42.760Z,4.44
2018-03-30T06:27:42.713Z,4.43
2018-03-30T06:28:42.969Z,4.51
2018-03-30T06:29:42.614Z,4.44
2018-03-30T06:30:42.574Z,4.50
2018-03-30T06:31:42.524Z,4.57
2018-03-30T06:32:42.477Z,4.61
2018-03-30T06:33:42.426Z,4.59
2018-03-30T06:34:42.378Z,4.61
2018-03-30T06:35:42.633Z,4.61
2018-03-30T06:36:42.278Z,4.59
2018-03-30T06:37:42.223Z,4.65
2018-03-30T06:38:42.185Z,4.56
2018-03-30T06:39:42.132Z,4.57
2018-03-30T06:40:42.085Z,4.64
2018-03-30T06:41:42.034Z,4.69
2018-03-30T06:42:42.286Z,4.64
2018-03-30T06:43:41.938Z,4.77
2018-03-30T06:44:41.902Z,4.72
2018-03-30T06:45:41.866Z,4.67
2018-03-30T06:46:41.861Z,4.79
2018-03-30T06:47:41.759Z,4.86
2018-03-30T06:48:41.714Z,4.79
2018-03-30T06:49:41.963Z,4.83
2018-03-30T06:50:41.619Z,4.93
2018-03-30T06:51:41.595Z,4.99
2018-03-30T06:52:41.517Z,4.97
2018-03-30T06:53:41.465Z,4.97
2018-03-30T06:54:41.418Z,5.11
2018-03-30T06:55:41.370Z,5.17
2018-03-30T06:56:41.624Z,5.30
2018-03-30T06:57:41.279Z,5.24
2018-03-30T06:58:41.234Z,5.32
2018-03-30T06:59:41.205Z,5.30
2018-03-30T07:00:41.143Z,5.29
2018-03-30T07:01:41.091Z,5.23
2018-03-30T07:02:41.042Z,5.27
2018-03-30T07:03:41.301Z,5.24
2018-03-30T07:04:40.951Z,5.30
2018-03-30T07:05:40.909Z,5.35
2018-03-30T07:06:40.855Z,5.45
2018-03-30T07:07:41.058Z,5.47
2018-03-30T07:08:40.775Z,5.48
2018-03-30T07:09:41.028Z,5.56
2018-03-30T07:10:40.680Z,5.60
2018-03-30T07:11:40.642Z,5.65
2018-03-30T07:12:40.586Z,5.70
2018-03-30T07:13:40.545Z,5.78
2018-03-30T07:14:40.495Z,5.65
2018-03-30T07:15:40.746Z,5.74
2018-03-30T07:16:40.588Z,5.83
2018-03-30T07:17:40.405Z,5.77
2018-03-30T07:18:40.302Z,5.85
2018-03-30T07:19:40.282Z,6.06
2018-03-30T07:20:40.207Z,6.28
2018-03-30T07:21:40.522Z,6.43
2018-03-30T07:22:40.167Z,6.69
2018-03-30T07:23:40.068Z,6.73
2018-03-30T07:24:40.045Z,6.82
2018-03-30T07:25:39.987Z,7.09
2018-03-30T07:26:39.951Z,7.14
2018-03-30T07:27:40.299Z,7.23
2018-03-30T07:28:40.083Z,7.36
2018-03-30T07:29:39.854Z,7.07
2018-03-30T07:30:39.759Z,7.23
2018-03-30T07:31:39.724Z,6.82
2018-03-30T07:32:39.971Z,6.73
2018-03-30T07:33:39.930Z,6.72
2018-03-30T07:34:39.576Z,6.86
2018-03-30T07:35:39.532Z,6.73
2018-03-30T07:36:39.495Z,6.71
2018-03-30T07:37:39.443Z,6.46
2018-03-30T07:38:39.398Z,6.64
2018-03-30T07:39:39.360Z,6.65
2018-03-30T07:40:39.600Z,6.58
2018-03-30T07:41:39.306Z,6.78
2018-03-30T07:42:39.213Z,6.90
2018-03-30T07:43:39.169Z,6.83
2018-03-30T07:44:39.120Z,6.73
2018-03-30T07:45:39.077Z,6.89
2018-03-30T07:46:39.079Z,6.96
2018-03-30T07:47:39.292Z,6.97
2018-03-30T07:48:38.953Z,6.94
2018-03-30T07:49:38.914Z,7.07
2018-03-30T07:50:39.061Z,6.87
2018-03-30T07:51:38.820Z,6.99
2018-03-30T07:52:38.775Z,6.86
2018-03-30T07:53:38.728Z,7.08
2018-03-30T07:54:39.031Z,7.19
2018-03-30T07:55:38.695Z,7.33
2018-03-30T07:56:38.584Z,7.33
2018-03-30T07:57:38.610Z,7.24
2018-03-30T07:58:38.493Z,7.19
2018-03-30T07:59:38.604Z,7.33
2018-03-30T08:01:38.869Z,7.55
2018-03-30T08:02:38.367Z,7.71
2018-03-30T08:03:38.275Z,7.67
2018-03-30T08:04:38.278Z,7.79
2018-03-30T08:05:38.343Z,7.96
2018-03-30T08:06:38.144Z,9.42
2018-03-30T08:07:38.294Z,10.72
2018-03-30T08:08:38.360Z,11.01
2018-03-30T08:09:38.055Z,10.69
2018-03-30T08:10:38.012Z,10.34
2018-03-30T08:11:37.920Z,9.01
2018-03-30T08:12:37.928Z,9.08
2018-03-30T08:13:37.844Z,9.44
2018-03-30T08:14:37.801Z,9.74
2018-03-30T08:15:38.058Z,9.48
2018-03-30T08:16:37.720Z,9.31
2018-03-30T08:17:37.974Z,9.99
2018-03-30T08:18:37.691Z,11.11
2018-03-30T08:19:37.653Z,11.35
2018-03-30T08:20:37.697Z,11.42
2018-03-30T08:21:37.798Z,11.27
2018-03-30T08:22:37.504Z,11.51
2018-03-30T08:23:37.415Z,11.90
2018-03-30T08:24:37.525Z,12.59
2018-03-30T08:25:37.379Z,13.44
2018-03-30T08:26:37.291Z,14.19
2018-03-30T08:27:37.552Z,14.64
2018-03-30T08:28:37.262Z,13.66
2018-03-30T08:29:37.388Z,12.88
2018-03-30T08:30:37.291Z,12.91
2018-03-30T08:31:37.135Z,13.12
2018-03-30T08:32:37.264Z,12.63
2018-03-30T08:33:37.380Z,12.44
2018-03-30T08:34:36.993Z,11.75
2018-03-30T08:35:37.000Z,12.56
2018-03-30T08:36:36.913Z,12.95
2018-03-30T08:37:37.023Z,12.94
2018-03-30T08:38:36.887Z,12.96
2018-03-30T08:39:37.102Z,13.86
2018-03-30T08:40:36.812Z,14.16
2018-03-30T08:41:36.798Z,13.96
2018-03-30T08:42:36.741Z,13.93
2018-03-30T08:43:36.657Z,14.08
2018-03-30T08:44:36.616Z,14.85
2018-03-30T08:45:36.977Z,14.82
2018-03-30T08:46:36.534Z,15.22
2018-03-30T08:47:36.550Z,15.88
2018-03-30T08:48:36.618Z,15.88
2018-03-30T08:49:36.428Z,15.11
2018-03-30T08:50:36.446Z,15.71
2018-03-30T08:51:36.660Z,15.85
2018-03-30T08:52:36.326Z,14.53
2018-03-30T08:53:36.353Z,14.29
2018-03-30T08:54:36.267Z,13.96
2018-03-30T08:55:36.284Z,14.57
2018-03-30T08:56:36.204Z,14.86
2018-03-30T08:57:36.218Z,15.73
2018-03-30T08:58:36.534Z,16.29
2018-03-30T08:59:36.159Z,17.30
2018-03-30T09:00:36.272Z,17.02
2018-03-30T09:01:36.028Z,17.12
2018-03-30T09:02:36.042Z,17.12
2018-03-30T09:03:36.130Z,17.47
2018-03-30T09:04:35.935Z,18.04
2018-03-30T09:05:36.292Z,17.42
2018-03-30T09:06:35.859Z,16.48
2018-03-30T09:07:35.881Z,16.77
2018-03-30T09:08:35.840Z,16.08
2018-03-30T09:09:35.756Z,15.64
2018-03-30T09:10:35.781Z,15.20
2018-03-30T09:11:35.693Z,15.28
2018-03-30T09:12:36.015Z,15.67
2018-03-30T09:13:35.680Z,15.30
2018-03-30T09:14:35.595Z,15.20
2018-03-30T09:15:35.611Z,15.19
2018-03-30T09:16:35.533Z,15.16
2018-03-30T09:17:35.663Z,15.81
2018-03-30T09:18:35.524Z,16.40
2018-03-30T09:19:35.942Z,17.03
2018-03-30T09:20:35.458Z,17.25
2018-03-30T09:21:35.377Z,17.62
2018-03-30T09:22:35.397Z,16.96
2018-03-30T09:23:35.517Z,17.17
2018-03-30T09:24:35.284Z,17.65
2018-03-30T09:25:35.299Z,16.84
2018-03-30T09:26:35.507Z,18.01
2018-03-30T09:27:35.373Z,18.59
2018-03-30T09:28:35.309Z,18.31
2018-03-30T09:29:35.110Z,16.50
2018-03-30T09:30:35.246Z,17.25
2018-03-30T09:31:35.048Z,18.07
2018-03-30T09:32:35.255Z,18.23
2018-03-30T09:33:35.303Z,18.89
2018-03-30T09:34:34.962Z,17.80
2018-03-30T09:35:34.986Z,16.77
2018-03-30T09:36:34.910Z,17.38
2018-03-30T09:37:35.169Z,17.28
2018-03-30T09:38:34.891Z,17.25
2018-03-30T09:39:35.111Z,17.51
2018-03-30T09:40:34.833Z,18.72
2018-03-30T09:41:37.465Z,19.35
2018-03-30T09:42:35.967Z,18.20
2018-03-30T09:43:34.818Z,17.65
2018-03-30T09:44:34.656Z,17.62
2018-03-30T09:45:34.977Z,17.65
2018-03-30T09:46:34.600Z,17.89
2018-03-30T09:47:34.566Z,18.64
2018-03-30T09:48:34.736Z,19.85
2018-03-30T09:49:34.876Z,19.60
2018-03-30T09:50:34.615Z,18.39
2018-03-30T09:51:34.786Z,18.44
2018-03-30T09:52:34.407Z,19.28
2018-03-30T09:53:34.585Z,19.39
2018-03-30T09:54:34.396Z,18.14
2018-03-30T09:55:34.325Z,17.92
2018-03-30T09:56:34.489Z,18.46
2018-03-30T09:57:34.567Z,18.79
2018-03-30T09:58:34.286Z,18.75
2018-03-30T09:59:34.259Z,19.83
2018-03-30T10:00:34.228Z,20.30
2018-03-30T10:01:34.202Z,18.71
2018-03-30T10:02:34.126Z,17.79
2018-03-30T10:03:34.393Z,17.73
2018-03-30T10:04:34.210Z,17.45
2018-03-30T10:05:34.019Z,17.28
2018-03-30T10:06:34.042Z,16.50
2018-03-30T10:07:33.965Z,16.69
2018-03-30T10:08:33.981Z,17.17
2018-03-30T10:09:34.299Z,17.91
2018-03-30T10:10:33.872Z,17.40
2018-03-30T10:11:33.890Z,17.32
2018-03-30T10:12:33.861Z,17.98
2018-03-30T10:13:33.835Z,18.93
2018-03-30T10:14:33.903Z,19.71
2018-03-30T10:15:33.718Z,20.60
2018-03-30T10:16:33.994Z,19.42
2018-03-30T10:17:33.783Z,19.34
2018-03-30T10:18:33.630Z,18.75
2018-03-30T10:19:33.802Z,17.73
2018-03-30T10:20:33.573Z,17.96
2018-03-30T10:21:33.705Z,17.98
2018-03-30T10:22:33.676Z,18.78
2018-03-30T10:23:33.796Z,18.44
2018-03-30T10:24:33.543Z,17.57
2018-03-30T10:25:33.435Z,18.29
2018-03-30T10:26:33.512Z,17.45
2018-03-30T10:27:33.428Z,18.25
2018-03-30T10:28:33.348Z,18.47
2018-03-30T10:29:33.358Z,18.71
2018-03-30T10:30:33.596Z,19.17
2018-03-30T10:31:33.463Z,18.82
2018-03-30T10:32:33.423Z,19.13
2018-03-30T10:33:33.197Z,17.96
2018-03-30T10:34:33.224Z,17.57
2018-03-30T10:35:33.135Z,17.45
2018-03-30T10:36:33.156Z,18.23
2018-03-30T10:37:33.588Z,18.01
2018-03-30T10:38:33.062Z,18.83
2018-03-30T10:39:33.227Z,18.16
2018-03-30T10:40:33.000Z,19.58
2018-03-30T10:41:33.070Z,19.15
2018-03-30T10:42:32.992Z,18.82
2018-03-30T10:43:32.952Z,19.40
2018-03-30T10:44:33.388Z,19.06
2018-03-30T10:45:32.855Z,18.78
2018-03-30T10:46:33.095Z,18.79
2018-03-30T10:47:33.095Z,18.07
2018-03-30T10:48:32.772Z,17.58
2018-03-30T10:49:32.791Z,18.82
2018-03-30T10:50:32.707Z,19.12
2018-03-30T10:51:33.131Z,18.57
2018-03-30T10:52:32.700Z,17.84
2018-03-30T10:53:32.615Z,17.79
2018-03-30T10:54:32.631Z,17.91
2018-03-30T10:55:32.555Z,17.86
2018-03-30T10:56:32.571Z,18.28
2018-03-30T10:57:32.995Z,18.29
2018-03-30T10:58:32.462Z,16.96
2018-03-30T10:59:32.684Z,18.14
2018-03-30T11:00:32.405Z,17.79
2018-03-30T11:01:32.439Z,17.86
2018-03-30T11:02:32.505Z,19.53
2018-03-30T11:03:32.627Z,20.35
2018-03-30T11:04:32.354Z,19.06
2018-03-30T11:05:32.280Z,19.55
2018-03-30T11:06:32.394Z,18.78
2018-03-30T11:07:32.261Z,17.92
2018-03-30T11:08:32.177Z,17.03
2018-03-30T11:09:32.491Z,16.18
2018-03-30T11:10:32.110Z,17.76
2018-03-30T11:11:32.136Z,17.65
2018-03-30T11:12:32.098Z,18.57
2018-03-30T11:13:32.018Z,17.54
2018-03-30T11:14:32.034Z,17.24
2018-03-30T11:15:32.255Z,17.43
2018-03-30T11:16:31.982Z,17.17
2018-03-30T11:17:32.038Z,17.70
2018-03-30T11:18:31.859Z,18.16
2018-03-30T11:19:32.036Z,18.56
2018-03-30T11:20:31.851Z,17.66
2018-03-30T11:21:32.125Z,18.44
2018-03-30T11:22:31.784Z,18.60
2018-03-30T11:23:31.705Z,18.66
2018-03-30T11:24:31.716Z,19.39
2018-03-30T11:25:31.845Z,19.58
2018-03-30T11:26:31.613Z,19.46
2018-03-30T11:27:31.983Z,18.47
2018-03-30T11:28:31.554Z,18.97
2018-03-30T11:29:31.672Z,19.07
2018-03-30T11:30:31.538Z,18.49
2018-03-30T11:31:31.505Z,18.02
2018-03-30T11:32:31.473Z,17.99
2018-03-30T11:33:31.377Z,17.92
2018-03-30T11:34:31.649Z,17.73
2018-03-30T11:35:31.370Z,18.32
2018-03-30T11:36:31.287Z,19.60
2018-03-30T11:37:31.311Z,19.60
2018-03-30T11:38:31.235Z,19.28
2018-03-30T11:39:31.239Z,19.53
2018-03-30T11:40:31.211Z,19.62
2018-03-30T11:41:31.442Z,19.21
2018-03-30T11:42:31.158Z,18.79
2018-03-30T11:43:31.077Z,18.29
2018-03-30T11:44:31.197Z,18.02
2018-03-30T11:45:31.065Z,17.81
2018-03-30T11:46:31.236Z,17.68
2018-03-30T11:47:31.104Z,17.27
2018-03-30T11:48:31.227Z,17.17
2018-03-30T11:49:30.945Z,16.87
2018-03-30T11:50:31.073Z,17.79
2018-03-30T11:51:31.026Z,17.77
2018-03-30T11:52:30.850Z,17.87
2018-03-30T11:53:30.761Z,17.74
2018-03-30T11:54:30.878Z,17.76
2018-03-30T11:55:31.046Z,18.44
2018-03-30T11:56:30.715Z,18.87
2018-03-30T11:57:30.629Z,18.76
2018-03-30T11:58:30.640Z,18.66
2018-03-30T11:59:30.607Z,18.05
2018-03-30T12:00:30.587Z,18.82
2018-03-30T12:01:30.562Z,19.32
2018-03-30T12:02:30.764Z,19.87
2018-03-30T12:03:30.529Z,20.90
2018-03-30T12:04:30.451Z,20.85
2018-03-30T12:05:30.391Z,20.61
2018-03-30T12:06:30.405Z,19.95
2018-03-30T12:07:30.353Z,20.56
2018-03-30T12:08:30.347Z,19.32
2018-03-30T12:09:30.613Z,18.57
2018-03-30T12:10:30.230Z,18.47
2018-03-30T12:11:30.248Z,19.52
2018-03-30T12:12:30.273Z,19.71
2018-03-30T12:13:30.123Z,19.31
2018-03-30T12:14:30.292Z,18.78
2018-03-30T12:15:30.375Z,18.96
2018-03-30T12:16:30.188Z,19.17
2018-03-30T12:17:30.056Z,18.65
2018-03-30T12:18:29.977Z,18.83
2018-03-30T12:19:30.147Z,18.38
2018-03-30T12:20:29.913Z,18.91
2018-03-30T12:21:30.281Z,18.99
2018-03-30T12:22:29.902Z,18.79
2018-03-30T12:23:29.819Z,19.25
2018-03-30T12:24:29.850Z,19.50
2018-03-30T12:25:29.755Z,19.87
2018-03-30T12:26:29.876Z,19.32
2018-03-30T12:27:30.049Z,20.20
2018-03-30T12:28:29.671Z,19.61
2018-03-30T12:29:29.698Z,19.87
2018-03-30T12:30:29.616Z,20.19
2018-03-30T12:31:29.631Z,21.09
2018-03-30T12:32:29.856Z,21.75
2018-03-30T12:33:29.821Z,20.27
2018-03-30T12:34:29.644Z,19.52
2018-03-30T12:35:29.520Z,19.21
2018-03-30T12:36:29.632Z,19.05
2018-03-30T12:37:29.443Z,17.98
2018-03-30T12:38:29.359Z,18.75
2018-03-30T12:39:29.630Z,20.01
2018-03-30T12:40:29.349Z,20.05
2018-03-30T12:41:29.327Z,20.23
2018-03-30T12:42:29.444Z,20.38
2018-03-30T12:43:29.212Z,20.51
2018-03-30T12:44:29.328Z,19.90
2018-03-30T12:45:29.516Z,19.32
2018-03-30T12:46:29.429Z,19.76
2018-03-30T12:47:29.152Z,20.20
2018-03-30T12:48:29.073Z,19.65
2018-03-30T12:49:29.096Z,19.62
2018-03-30T12:50:29.314Z,19.79
2018-03-30T12:51:29.129Z,20.27
2018-03-30T12:52:29.300Z,20.72
2018-03-30T12:53:28.923Z,20.83
2018-03-30T12:54:28.941Z,20.75
2018-03-30T12:55:28.907Z,19.57
2018-03-30T12:56:28.980Z,18.86
2018-03-30T12:57:28.849Z,19.35
2018-03-30T12:58:28.771Z,19.53
2018-03-30T12:59:29.138Z,19.65
2018-03-30T13:00:28.863Z,19.28
2018-03-30T13:01:28.868Z,18.32
2018-03-30T13:02:28.700Z,18.84
2018-03-30T13:03:28.609Z,19.53
2018-03-30T13:04:28.626Z,18.71
2018-03-30T13:05:28.598Z,18.04
2018-03-30T13:06:28.915Z,17.28
2018-03-30T13:07:28.534Z,18.17
2018-03-30T13:08:28.454Z,18.42